sensor_id;sensor_type;location;lat;lon;timestamp;P1;durP1;ratioP1;P2;durP2;ratioP2
8232;SDS011;4157;48.074;9.952;2022-09-12T00:01:31;4.00;;;2.22;;
8232;SDS011;4157;48.074;9.952;2022-09-12T00:03:59;5.35;;;2.40;;
8232;SDS011;4157;48.074;9.952;2022-09-12T00:06:29;7.30;;;2.83;;
8232;SDS011;4157;48.074;9.952;2022-09-12T00:08:58;4.53;;;2.60;;
8232;SDS011;4157;48.074;9.952;2022-09-12T00:11:26;4.45;;;2.45;;
8232;SDS011;4157;48.074;9.952;2022-09-12T00:13:54;6.97;;;2.33;;
8232;SDS011;4157;48.074;9.952;2022-09-12T00:16:23;5.60;;;2.70;;
8232;SDS011;4157;48.074;9.952;2022-09-12T00:18:51;4.85;;;2.47;;
8232;SDS011;4157;48.074;9.952;2022-09-12T00:21:19;4.72;;;2.47;;
8232;SDS011;4157;48.074;9.952;2022-09-12T00:23:49;4.60;;;2.40;;
8232;SDS011;4157;48.074;9.952;2022-09-12T00:26:17;6.03;;;2.13;;
8232;SDS011;4157;48.074;9.952;2022-09-12T00:28:45;6.38;;;2.53;;
8232;SDS011;4157;48.074;9.952;2022-09-12T00:31:14;4.25;;;2.42;;
8232;SDS011;4157;48.074;9.952;2022-09-12T00:33:42;4.75;;;2.50;;
8232;SDS011;4157;48.074;9.952;2022-09-12T00:36:10;4.32;;;2.25;;
8232;SDS011;4157;48.074;9.952;2022-09-12T00:38:39;7.28;;;2.80;;
8232;SDS011;4157;48.074;9.952;2022-09-12T00:41:09;5.18;;;2.47;;
8232;SDS011;4157;48.074;9.952;2022-09-12T00:43:40;5.65;;;2.53;;
8232;SDS011;4157;48.074;9.952;2022-09-12T00:46:12;3.58;;;2.15;;
8232;SDS011;4157;48.074;9.952;2022-09-12T00:48:40;4.68;;;2.53;;
8232;SDS011;4157;48.074;9.952;2022-09-12T00:51:08;5.25;;;2.38;;
8232;SDS011;4157;48.074;9.952;2022-09-12T00:53:37;5.82;;;2.80;;
8232;SDS011;4157;48.074;9.952;2022-09-12T00:56:05;5.00;;;2.72;;
8232;SDS011;4157;48.074;9.952;2022-09-12T00:58:35;6.22;;;2.40;;
8232;SDS011;4157;48.074;9.952;2022-09-12T01:01:06;4.57;;;2.47;;
8232;SDS011;4157;48.074;9.952;2022-09-12T01:03:33;6.53;;;2.30;;
8232;SDS011;4157;48.074;9.952;2022-09-12T01:06:02;4.32;;;2.38;;
8232;SDS011;4157;48.074;9.952;2022-09-12T01:08:32;7.22;;;2.55;;
8232;SDS011;4157;48.074;9.952;2022-09-12T01:11:01;6.28;;;2.17;;
8232;SDS011;4157;48.074;9.952;2022-09-12T01:13:30;5.90;;;2.08;;
8232;SDS011;4157;48.074;9.952;2022-09-12T01:15:59;4.93;;;2.15;;
8232;SDS011;4157;48.074;9.952;2022-09-12T01:18:29;4.03;;;2.10;;
8232;SDS011;4157;48.074;9.952;2022-09-12T01:21:09;4.15;;;2.17;;
8232;SDS011;4157;48.074;9.952;2022-09-12T01:26:27;5.18;;;2.50;;
8232;SDS011;4157;48.074;9.952;2022-09-12T01:29:07;4.95;;;2.22;;
8232;SDS011;4157;48.074;9.952;2022-09-12T01:31:41;4.60;;;2.28;;
8232;SDS011;4157;48.074;9.952;2022-09-12T01:34:14;4.22;;;2.72;;
8232;SDS011;4157;48.074;9.952;2022-09-12T01:36:47;4.05;;;2.20;;
8232;SDS011;4157;48.074;9.952;2022-09-12T01:39:24;4.88;;;2.40;;
8232;SDS011;4157;48.074;9.952;2022-09-12T01:41:54;4.10;;;2.38;;
8232;SDS011;4157;48.074;9.952;2022-09-12T01:44:29;4.82;;;2.40;;
8232;SDS011;4157;48.074;9.952;2022-09-12T01:47:02;5.75;;;2.22;;
8232;SDS011;4157;48.074;9.952;2022-09-12T01:49:35;3.92;;;2.40;;
8232;SDS011;4157;48.074;9.952;2022-09-12T01:52:05;5.25;;;2.70;;
8232;SDS011;4157;48.074;9.952;2022-09-12T01:54:37;4.40;;;2.75;;
8232;SDS011;4157;48.074;9.952;2022-09-12T01:57:08;3.97;;;2.30;;
8232;SDS011;4157;48.074;9.952;2022-09-12T01:59:37;3.78;;;2.30;;
8232;SDS011;4157;48.074;9.952;2022-09-12T02:02:09;5.95;;;2.45;;
8232;SDS011;4157;48.074;9.952;2022-09-12T02:04:40;4.82;;;2.30;;
8232;SDS011;4157;48.074;9.952;2022-09-12T02:07:10;4.65;;;1.98;;
8232;SDS011;4157;48.074;9.952;2022-09-12T02:09:40;5.60;;;1.98;;
8232;SDS011;4157;48.074;9.952;2022-09-12T02:12:10;5.00;;;2.10;;
8232;SDS011;4157;48.074;9.952;2022-09-12T02:14:39;4.45;;;2.35;;
8232;SDS011;4157;48.074;9.952;2022-09-12T02:17:10;4.00;;;2.10;;
8232;SDS011;4157;48.074;9.952;2022-09-12T02:19:39;4.65;;;2.03;;
8232;SDS011;4157;48.074;9.952;2022-09-12T02:22:10;4.10;;;2.15;;
8232;SDS011;4157;48.074;9.952;2022-09-12T02:24:39;4.50;;;2.30;;
8232;SDS011;4157;48.074;9.952;2022-09-12T02:27:09;6.38;;;2.60;;
8232;SDS011;4157;48.074;9.952;2022-09-12T02:29:38;4.10;;;2.20;;
8232;SDS011;4157;48.074;9.952;2022-09-12T02:32:07;4.20;;;2.25;;
8232;SDS011;4157;48.074;9.952;2022-09-12T02:34:44;5.72;;;2.80;;
8232;SDS011;4157;48.074;9.952;2022-09-12T02:37:20;4.47;;;2.33;;
8232;SDS011;4157;48.074;9.952;2022-09-12T02:39:50;4.65;;;2.33;;
8232;SDS011;4157;48.074;9.952;2022-09-12T02:42:19;6.38;;;2.80;;
8232;SDS011;4157;48.074;9.952;2022-09-12T02:44:47;5.28;;;2.63;;
8232;SDS011;4157;48.074;9.952;2022-09-12T02:47:17;5.90;;;2.60;;
8232;SDS011;4157;48.074;9.952;2022-09-12T02:49:47;3.70;;;2.20;;
8232;SDS011;4157;48.074;9.952;2022-09-12T02:52:15;3.78;;;2.13;;
8232;SDS011;4157;48.074;9.952;2022-09-12T02:54:42;4.05;;;2.30;;
8232;SDS011;4157;48.074;9.952;2022-09-12T02:57:14;7.05;;;2.08;;
8232;SDS011;4157;48.074;9.952;2022-09-12T02:59:42;3.30;;;2.00;;
8232;SDS011;4157;48.074;9.952;2022-09-12T03:02:13;4.05;;;2.17;;
8232;SDS011;4157;48.074;9.952;2022-09-12T03:04:50;5.57;;;2.03;;
8232;SDS011;4157;48.074;9.952;2022-09-12T03:07:23;4.88;;;2.20;;
8232;SDS011;4157;48.074;9.952;2022-09-12T03:09:54;5.32;;;2.30;;
8232;SDS011;4157;48.074;9.952;2022-09-12T03:12:29;4.32;;;2.30;;
8232;SDS011;4157;48.074;9.952;2022-09-12T03:15:11;5.53;;;2.40;;
8232;SDS011;4157;48.074;9.952;2022-09-12T03:17:44;4.72;;;2.30;;
8232;SDS011;4157;48.074;9.952;2022-09-12T03:20:15;6.18;;;2.28;;
8232;SDS011;4157;48.074;9.952;2022-09-12T03:22:49;4.07;;;2.47;;
8232;SDS011;4157;48.074;9.952;2022-09-12T03:25:19;5.57;;;2.30;;
8232;SDS011;4157;48.074;9.952;2022-09-12T03:27:52;4.38;;;2.10;;
8232;SDS011;4157;48.074;9.952;2022-09-12T03:30:20;5.35;;;2.10;;
8232;SDS011;4157;48.074;9.952;2022-09-12T03:32:48;4.43;;;1.73;;
8232;SDS011;4157;48.074;9.952;2022-09-12T03:35:18;4.70;;;2.08;;
8232;SDS011;4157;48.074;9.952;2022-09-12T03:37:46;4.82;;;1.90;;
8232;SDS011;4157;48.074;9.952;2022-09-12T03:40:14;4.15;;;1.63;;
8232;SDS011;4157;48.074;9.952;2022-09-12T03:42:42;5.88;;;1.60;;
8232;SDS011;4157;48.074;9.952;2022-09-12T03:45:10;3.55;;;1.70;;
8232;SDS011;4157;48.074;9.952;2022-09-12T03:47:38;4.85;;;2.05;;
8232;SDS011;4157;48.074;9.952;2022-09-12T03:50:06;3.55;;;2.15;;
8232;SDS011;4157;48.074;9.952;2022-09-12T03:52:35;3.80;;;2.10;;
8232;SDS011;4157;48.074;9.952;2022-09-12T03:55:03;5.03;;;2.22;;
8232;SDS011;4157;48.074;9.952;2022-09-12T03:57:31;3.55;;;2.05;;
8232;SDS011;4157;48.074;9.952;2022-09-12T03:59:59;3.95;;;1.85;;
8232;SDS011;4157;48.074;9.952;2022-09-12T04:02:27;4.35;;;2.00;;
8232;SDS011;4157;48.074;9.952;2022-09-12T04:04:54;5.95;;;2.30;;
8232;SDS011;4157;48.074;9.952;2022-09-12T04:07:22;6.63;;;2.08;;
8232;SDS011;4157;48.074;9.952;2022-09-12T04:09:51;5.30;;;2.42;;
8232;SDS011;4157;48.074;9.952;2022-09-12T04:12:19;4.75;;;2.45;;
8232;SDS011;4157;48.074;9.952;2022-09-12T04:14:47;7.07;;;2.67;;
8232;SDS011;4157;48.074;9.952;2022-09-12T04:17:15;7.65;;;2.60;;
8232;SDS011;4157;48.074;9.952;2022-09-12T04:19:43;5.65;;;2.97;;
8232;SDS011;4157;48.074;9.952;2022-09-12T04:22:10;5.30;;;2.20;;
8232;SDS011;4157;48.074;9.952;2022-09-12T04:24:38;5.70;;;2.35;;
8232;SDS011;4157;48.074;9.952;2022-09-12T04:27:07;7.60;;;2.72;;
8232;SDS011;4157;48.074;9.952;2022-09-12T04:29:34;5.75;;;2.47;;
8232;SDS011;4157;48.074;9.952;2022-09-12T04:32:02;4.13;;;1.70;;
8232;SDS011;4157;48.074;9.952;2022-09-12T04:34:30;3.20;;;1.75;;
8232;SDS011;4157;48.074;9.952;2022-09-12T04:36:58;4.75;;;1.90;;
8232;SDS011;4157;48.074;9.952;2022-09-12T04:39:25;3.60;;;1.90;;
8232;SDS011;4157;48.074;9.952;2022-09-12T04:41:53;5.47;;;2.42;;
8232;SDS011;4157;48.074;9.952;2022-09-12T04:44:22;5.72;;;2.78;;
8232;SDS011;4157;48.074;9.952;2022-09-12T04:46:50;6.43;;;2.65;;
8232;SDS011;4157;48.074;9.952;2022-09-12T04:49:17;6.05;;;2.88;;
8232;SDS011;4157;48.074;9.952;2022-09-12T04:51:45;5.35;;;2.58;;
8232;SDS011;4157;48.074;9.952;2022-09-12T04:54:13;5.93;;;2.90;;
8232;SDS011;4157;48.074;9.952;2022-09-12T04:56:42;4.95;;;2.88;;
8232;SDS011;4157;48.074;9.952;2022-09-12T04:59:10;7.70;;;3.60;;
8232;SDS011;4157;48.074;9.952;2022-09-12T05:01:39;6.63;;;3.20;;
8232;SDS011;4157;48.074;9.952;2022-09-12T05:04:08;5.22;;;2.88;;
8232;SDS011;4157;48.074;9.952;2022-09-12T05:06:35;4.38;;;2.67;;
8232;SDS011;4157;48.074;9.952;2022-09-12T05:09:04;6.78;;;2.97;;
8232;SDS011;4157;48.074;9.952;2022-09-12T05:11:33;6.80;;;2.90;;
8232;SDS011;4157;48.074;9.952;2022-09-12T05:14:00;10.50;;;3.17;;
8232;SDS011;4157;48.074;9.952;2022-09-12T05:16:28;6.18;;;2.92;;
8232;SDS011;4157;48.074;9.952;2022-09-12T05:18:58;7.22;;;3.13;;
8232;SDS011;4157;48.074;9.952;2022-09-12T05:21:26;7.13;;;3.35;;
8232;SDS011;4157;48.074;9.952;2022-09-12T05:23:54;7.90;;;3.00;;
8232;SDS011;4157;48.074;9.952;2022-09-12T05:26:23;6.45;;;2.78;;
8232;SDS011;4157;48.074;9.952;2022-09-12T05:28:50;7.80;;;2.80;;
8232;SDS011;4157;48.074;9.952;2022-09-12T05:31:19;4.85;;;2.58;;
8232;SDS011;4157;48.074;9.952;2022-09-12T05:33:47;6.25;;;3.13;;
8232;SDS011;4157;48.074;9.952;2022-09-12T05:36:17;8.13;;;2.80;;
8232;SDS011;4157;48.074;9.952;2022-09-12T05:38:45;7.18;;;2.88;;
8232;SDS011;4157;48.074;9.952;2022-09-12T05:41:13;5.75;;;3.10;;
8232;SDS011;4157;48.074;9.952;2022-09-12T05:43:41;5.97;;;3.00;;
8232;SDS011;4157;48.074;9.952;2022-09-12T05:46:10;7.13;;;3.35;;
8232;SDS011;4157;48.074;9.952;2022-09-12T05:48:39;8.40;;;3.97;;
8232;SDS011;4157;48.074;9.952;2022-09-12T05:51:08;8.15;;;4.43;;
8232;SDS011;4157;48.074;9.952;2022-09-12T05:53:37;8.98;;;4.45;;
8232;SDS011;4157;48.074;9.952;2022-09-12T05:56:06;7.03;;;4.28;;
8232;SDS011;4157;48.074;9.952;2022-09-12T05:58:34;9.07;;;4.53;;
8232;SDS011;4157;48.074;9.952;2022-09-12T06:01:03;7.50;;;4.55;;
8232;SDS011;4157;48.074;9.952;2022-09-12T06:03:32;7.57;;;4.35;;
8232;SDS011;4157;48.074;9.952;2022-09-12T06:06:01;7.95;;;4.70;;
8232;SDS011;4157;48.074;9.952;2022-09-12T06:08:29;7.00;;;4.30;;
8232;SDS011;4157;48.074;9.952;2022-09-12T06:10:59;6.97;;;4.18;;
8232;SDS011;4157;48.074;9.952;2022-09-12T06:13:27;6.93;;;4.18;;
8232;SDS011;4157;48.074;9.952;2022-09-12T06:15:55;7.72;;;4.22;;
8232;SDS011;4157;48.074;9.952;2022-09-12T06:18:22;7.45;;;4.32;;
8232;SDS011;4157;48.074;9.952;2022-09-12T06:20:50;7.53;;;4.35;;
8232;SDS011;4157;48.074;9.952;2022-09-12T06:23:17;7.53;;;3.88;;
8232;SDS011;4157;48.074;9.952;2022-09-12T06:25:45;6.38;;;4.20;;
8232;SDS011;4157;48.074;9.952;2022-09-12T06:28:15;8.02;;;4.50;;
8232;SDS011;4157;48.074;9.952;2022-09-12T06:30:43;9.60;;;4.10;;
8232;SDS011;4157;48.074;9.952;2022-09-12T06:33:10;7.45;;;4.90;;
8232;SDS011;4157;48.074;9.952;2022-09-12T06:35:38;8.55;;;4.65;;
8232;SDS011;4157;48.074;9.952;2022-09-12T06:38:05;9.05;;;4.47;;
8232;SDS011;4157;48.074;9.952;2022-09-12T06:40:34;11.23;;;5.15;;
8232;SDS011;4157;48.074;9.952;2022-09-12T06:43:08;9.85;;;4.80;;
8232;SDS011;4157;48.074;9.952;2022-09-12T06:45:38;8.50;;;5.30;;
8232;SDS011;4157;48.074;9.952;2022-09-12T06:48:05;8.65;;;5.13;;
8232;SDS011;4157;48.074;9.952;2022-09-12T06:50:33;9.52;;;5.43;;
8232;SDS011;4157;48.074;9.952;2022-09-12T06:53:01;8.07;;;4.80;;
8232;SDS011;4157;48.074;9.952;2022-09-12T06:55:28;8.65;;;5.35;;
8232;SDS011;4157;48.074;9.952;2022-09-12T06:57:56;7.68;;;4.65;;
8232;SDS011;4157;48.074;9.952;2022-09-12T07:00:24;7.35;;;4.85;;
8232;SDS011;4157;48.074;9.952;2022-09-12T07:02:54;6.35;;;4.32;;
8232;SDS011;4157;48.074;9.952;2022-09-12T07:05:22;6.38;;;3.92;;
8232;SDS011;4157;48.074;9.952;2022-09-12T07:07:49;6.22;;;3.80;;
8232;SDS011;4157;48.074;9.952;2022-09-12T07:10:17;6.18;;;3.13;;
8232;SDS011;4157;48.074;9.952;2022-09-12T07:12:45;6.85;;;2.80;;
8232;SDS011;4157;48.074;9.952;2022-09-12T07:15:13;3.90;;;2.28;;
8232;SDS011;4157;48.074;9.952;2022-09-12T07:17:42;5.15;;;2.38;;
8232;SDS011;4157;48.074;9.952;2022-09-12T07:20:11;3.65;;;2.08;;
8232;SDS011;4157;48.074;9.952;2022-09-12T07:22:39;3.28;;;1.88;;
8232;SDS011;4157;48.074;9.952;2022-09-12T07:25:07;6.55;;;2.42;;
8232;SDS011;4157;48.074;9.952;2022-09-12T07:27:34;3.25;;;1.70;;
8232;SDS011;4157;48.074;9.952;2022-09-12T07:30:02;2.90;;;1.55;;
8232;SDS011;4157;48.074;9.952;2022-09-12T07:32:31;3.40;;;1.35;;
8232;SDS011;4157;48.074;9.952;2022-09-12T07:34:58;3.28;;;1.52;;
8232;SDS011;4157;48.074;9.952;2022-09-12T07:37:29;2.30;;;1.30;;
8232;SDS011;4157;48.074;9.952;2022-09-12T07:39:57;2.33;;;1.38;;
8232;SDS011;4157;48.074;9.952;2022-09-12T07:42:25;2.10;;;1.25;;
8232;SDS011;4157;48.074;9.952;2022-09-12T07:44:52;2.83;;;1.27;;
8232;SDS011;4157;48.074;9.952;2022-09-12T07:47:20;2.67;;;1.00;;
8232;SDS011;4157;48.074;9.952;2022-09-12T07:49:48;3.42;;;1.60;;
8232;SDS011;4157;48.074;9.952;2022-09-12T07:52:18;2.60;;;1.42;;
8232;SDS011;4157;48.074;9.952;2022-09-12T07:54:47;2.92;;;1.35;;
8232;SDS011;4157;48.074;9.952;2022-09-12T07:57:15;3.85;;;1.60;;
8232;SDS011;4157;48.074;9.952;2022-09-12T07:59:42;2.55;;;1.33;;
8232;SDS011;4157;48.074;9.952;2022-09-12T08:02:10;4.80;;;1.60;;
8232;SDS011;4157;48.074;9.952;2022-09-12T08:04:39;3.75;;;1.58;;
8232;SDS011;4157;48.074;9.952;2022-09-12T08:07:07;2.55;;;1.38;;
8232;SDS011;4157;48.074;9.952;2022-09-12T08:09:35;1.92;;;1.10;;
8232;SDS011;4157;48.074;9.952;2022-09-12T08:12:04;2.08;;;1.20;;
8232;SDS011;4157;48.074;9.952;2022-09-12T08:14:32;3.55;;;1.40;;
8232;SDS011;4157;48.074;9.952;2022-09-12T08:17:00;2.85;;;1.30;;
8232;SDS011;4157;48.074;9.952;2022-09-12T08:19:27;3.20;;;1.67;;
8232;SDS011;4157;48.074;9.952;2022-09-12T08:21:56;4.13;;;1.30;;
8232;SDS011;4157;48.074;9.952;2022-09-12T08:24:23;2.70;;;1.15;;
8232;SDS011;4157;48.074;9.952;2022-09-12T08:26:51;2.35;;;1.40;;
8232;SDS011;4157;48.074;9.952;2022-09-12T08:29:20;2.83;;;1.25;;
8232;SDS011;4157;48.074;9.952;2022-09-12T08:31:48;1.77;;;1.15;;
8232;SDS011;4157;48.074;9.952;2022-09-12T08:34:16;3.05;;;1.60;;
8232;SDS011;4157;48.074;9.952;2022-09-12T08:36:43;2.75;;;1.50;;
8232;SDS011;4157;48.074;9.952;2022-09-12T08:39:11;2.13;;;1.20;;
8232;SDS011;4157;48.074;9.952;2022-09-12T08:41:40;4.70;;;1.27;;
8232;SDS011;4157;48.074;9.952;2022-09-12T08:44:16;2.58;;;1.10;;
8232;SDS011;4157;48.074;9.952;2022-09-12T08:46:49;2.53;;;1.30;;
8232;SDS011;4157;48.074;9.952;2022-09-12T08:49:24;2.53;;;1.42;;
8232;SDS011;4157;48.074;9.952;2022-09-12T08:51:53;3.47;;;1.20;;
8232;SDS011;4157;48.074;9.952;2022-09-12T08:54:22;4.13;;;1.13;;
8232;SDS011;4157;48.074;9.952;2022-09-12T08:56:51;3.30;;;1.30;;
8232;SDS011;4157;48.074;9.952;2022-09-12T08:59:22;3.00;;;1.00;;
8232;SDS011;4157;48.074;9.952;2022-09-12T09:01:51;2.88;;;1.20;;
8232;SDS011;4157;48.074;9.952;2022-09-12T09:04:23;2.53;;;0.90;;
8232;SDS011;4157;48.074;9.952;2022-09-12T09:07:02;1.60;;;0.90;;
8232;SDS011;4157;48.074;9.952;2022-09-12T09:09:35;1.73;;;1.02;;
8232;SDS011;4157;48.074;9.952;2022-09-12T09:12:09;4.60;;;0.80;;
8232;SDS011;4157;48.074;9.952;2022-09-12T09:14:41;1.52;;;0.90;;
8232;SDS011;4157;48.074;9.952;2022-09-12T09:17:14;5.30;;;1.02;;
8232;SDS011;4157;48.074;9.952;2022-09-12T09:19:47;3.60;;;1.02;;
8232;SDS011;4157;48.074;9.952;2022-09-12T09:22:19;2.70;;;1.17;;
8232;SDS011;4157;48.074;9.952;2022-09-12T09:24:49;2.28;;;1.00;;
8232;SDS011;4157;48.074;9.952;2022-09-12T09:27:22;3.70;;;1.13;;
8232;SDS011;4157;48.074;9.952;2022-09-12T09:29:53;2.08;;;0.90;;
8232;SDS011;4157;48.074;9.952;2022-09-12T09:32:25;1.30;;;0.73;;
8232;SDS011;4157;48.074;9.952;2022-09-12T09:34:53;1.60;;;0.70;;
8232;SDS011;4157;48.074;9.952;2022-09-12T09:37:23;1.58;;;0.88;;
8232;SDS011;4157;48.074;9.952;2022-09-12T09:39:55;1.33;;;0.77;;
8232;SDS011;4157;48.074;9.952;2022-09-12T09:42:30;3.05;;;0.80;;
8232;SDS011;4157;48.074;9.952;2022-09-12T09:45:02;1.05;;;0.60;;
8232;SDS011;4157;48.074;9.952;2022-09-12T09:47:32;2.40;;;0.90;;
8232;SDS011;4157;48.074;9.952;2022-09-12T09:49:59;2.33;;;0.85;;
8232;SDS011;4157;48.074;9.952;2022-09-12T09:52:28;0.98;;;0.70;;
8232;SDS011;4157;48.074;9.952;2022-09-12T09:54:58;2.08;;;0.82;;
8232;SDS011;4157;48.074;9.952;2022-09-12T09:57:42;1.20;;;0.70;;
8232;SDS011;4157;48.074;9.952;2022-09-12T10:00:19;1.23;;;0.70;;
8232;SDS011;4157;48.074;9.952;2022-09-12T10:02:58;4.28;;;1.17;;
8232;SDS011;4157;48.074;9.952;2022-09-12T10:05:27;2.17;;;1.08;;
8232;SDS011;4157;48.074;9.952;2022-09-12T10:07:56;2.63;;;1.10;;
8232;SDS011;4157;48.074;9.952;2022-09-12T10:10:24;1.85;;;0.95;;
8232;SDS011;4157;48.074;9.952;2022-09-12T10:12:54;2.15;;;0.90;;
8232;SDS011;4157;48.074;9.952;2022-09-12T10:15:33;1.52;;;0.75;;
8232;SDS011;4157;48.074;9.952;2022-09-12T10:18:02;1.17;;;0.80;;
8232;SDS011;4157;48.074;9.952;2022-09-12T10:20:31;1.20;;;0.90;;
8232;SDS011;4157;48.074;9.952;2022-09-12T10:23:00;2.55;;;1.00;;
8232;SDS011;4157;48.074;9.952;2022-09-12T10:25:28;3.38;;;1.10;;
8232;SDS011;4157;48.074;9.952;2022-09-12T10:27:57;2.25;;;1.00;;
8232;SDS011;4157;48.074;9.952;2022-09-12T10:30:25;2.05;;;0.80;;
8232;SDS011;4157;48.074;9.952;2022-09-12T10:32:55;2.58;;;0.70;;
8232;SDS011;4157;48.074;9.952;2022-09-12T10:35:27;1.23;;;0.70;;
8232;SDS011;4157;48.074;9.952;2022-09-12T10:37:55;2.22;;;1.08;;
8232;SDS011;4157;48.074;9.952;2022-09-12T10:40:25;1.70;;;0.80;;
8232;SDS011;4157;48.074;9.952;2022-09-12T10:42:54;1.55;;;0.80;;
8232;SDS011;4157;48.074;9.952;2022-09-12T10:45:27;2.47;;;0.80;;
8232;SDS011;4157;48.074;9.952;2022-09-12T10:47:55;1.23;;;0.80;;
8232;SDS011;4157;48.074;9.952;2022-09-12T10:50:26;1.30;;;0.85;;
8232;SDS011;4157;48.074;9.952;2022-09-12T10:52:54;5.68;;;1.17;;
8232;SDS011;4157;48.074;9.952;2022-09-12T10:55:38;2.40;;;0.80;;
8232;SDS011;4157;48.074;9.952;2022-09-12T10:58:22;1.48;;;0.80;;
8232;SDS011;4157;48.074;9.952;2022-09-12T11:00:57;1.25;;;0.75;;
8232;SDS011;4157;48.074;9.952;2022-09-12T11:03:29;2.35;;;0.98;;
8232;SDS011;4157;48.074;9.952;2022-09-12T11:06:02;1.00;;;0.80;;
8232;SDS011;4157;48.074;9.952;2022-09-12T11:08:33;1.05;;;0.80;;
8232;SDS011;4157;48.074;9.952;2022-09-12T11:11:04;1.83;;;0.90;;
8232;SDS011;4157;48.074;9.952;2022-09-12T11:13:46;1.52;;;0.80;;
8232;SDS011;4157;48.074;9.952;2022-09-12T11:16:17;3.22;;;1.08;;
8232;SDS011;4157;48.074;9.952;2022-09-12T11:18:52;3.13;;;1.00;;
8232;SDS011;4157;48.074;9.952;2022-09-12T11:21:28;1.25;;;0.80;;
8232;SDS011;4157;48.074;9.952;2022-09-12T11:26:50;2.17;;;1.00;;
8232;SDS011;4157;48.074;9.952;2022-09-12T11:29:26;2.05;;;0.80;;
8232;SDS011;4157;48.074;9.952;2022-09-12T11:32:02;4.00;;;0.80;;
8232;SDS011;4157;48.074;9.952;2022-09-12T11:34:34;1.85;;;0.90;;
8232;SDS011;4157;48.074;9.952;2022-09-12T11:37:10;3.28;;;0.95;;
8232;SDS011;4157;48.074;9.952;2022-09-12T11:39:44;2.63;;;1.02;;
8232;SDS011;4157;48.074;9.952;2022-09-12T11:42:14;2.97;;;0.93;;
8232;SDS011;4157;48.074;9.952;2022-09-12T11:44:44;2.25;;;1.00;;
8232;SDS011;4157;48.074;9.952;2022-09-12T11:47:12;3.45;;;0.85;;
8232;SDS011;4157;48.074;9.952;2022-09-12T11:49:40;1.30;;;0.70;;
8232;SDS011;4157;48.074;9.952;2022-09-12T11:52:12;1.40;;;0.80;;
8232;SDS011;4157;48.074;9.952;2022-09-12T11:54:41;1.55;;;0.65;;
8232;SDS011;4157;48.074;9.952;2022-09-12T11:57:25;1.48;;;0.80;;
8232;SDS011;4157;48.074;9.952;2022-09-12T11:59:57;1.90;;;0.95;;
8232;SDS011;4157;48.074;9.952;2022-09-12T12:02:27;1.60;;;0.80;;
8232;SDS011;4157;48.074;9.952;2022-09-12T12:05:01;1.42;;;0.73;;
8232;SDS011;4157;48.074;9.952;2022-09-12T12:07:33;1.15;;;0.70;;
8232;SDS011;4157;48.074;9.952;2022-09-12T12:10:04;1.00;;;0.60;;
8232;SDS011;4157;48.074;9.952;2022-09-12T12:12:32;1.15;;;0.68;;
8232;SDS011;4157;48.074;9.952;2022-09-12T12:14:59;3.85;;;0.60;;
8232;SDS011;4157;48.074;9.952;2022-09-12T12:17:28;1.23;;;0.60;;
8232;SDS011;4157;48.074;9.952;2022-09-12T12:19:56;2.33;;;0.80;;
8232;SDS011;4157;48.074;9.952;2022-09-12T12:22:25;1.52;;;0.43;;
8232;SDS011;4157;48.074;9.952;2022-09-12T12:24:54;2.58;;;0.70;;
8232;SDS011;4157;48.074;9.952;2022-09-12T12:27:44;1.90;;;0.70;;
8232;SDS011;4157;48.074;9.952;2022-09-12T12:32:58;0.98;;;0.57;;
8232;SDS011;4157;48.074;9.952;2022-09-12T12:35:36;1.00;;;0.60;;
8232;SDS011;4157;48.074;9.952;2022-09-12T12:38:04;1.25;;;0.63;;
8232;SDS011;4157;48.074;9.952;2022-09-12T12:40:53;1.27;;;0.60;;
8232;SDS011;4157;48.074;9.952;2022-09-12T12:43:41;1.77;;;0.50;;
8232;SDS011;4157;48.074;9.952;2022-09-12T12:46:12;0.98;;;0.57;;
8232;SDS011;4157;48.074;9.952;2022-09-12T12:48:51;0.98;;;0.57;;
8232;SDS011;4157;48.074;9.952;2022-09-12T12:51:30;1.27;;;0.50;;
8232;SDS011;4157;48.074;9.952;2022-09-12T12:54:00;0.75;;;0.50;;
8232;SDS011;4157;48.074;9.952;2022-09-12T12:56:32;1.75;;;0.63;;
8232;SDS011;4157;48.074;9.952;2022-09-12T12:59:01;1.30;;;0.60;;
8232;SDS011;4157;48.074;9.952;2022-09-12T13:01:29;2.83;;;0.60;;
8232;SDS011;4157;48.074;9.952;2022-09-12T13:04:10;1.60;;;0.50;;
8232;SDS011;4157;48.074;9.952;2022-09-12T13:06:39;1.65;;;0.68;;
8232;SDS011;4157;48.074;9.952;2022-09-12T13:09:08;1.45;;;0.63;;
8232;SDS011;4157;48.074;9.952;2022-09-12T13:11:44;0.57;;;0.50;;
8232;SDS011;4157;48.074;9.952;2022-09-12T13:16:55;0.93;;;0.45;;
8232;SDS011;4157;48.074;9.952;2022-09-12T13:19:23;1.65;;;0.70;;
8232;SDS011;4157;48.074;9.952;2022-09-12T13:21:55;1.23;;;0.70;;
8232;SDS011;4157;48.074;9.952;2022-09-12T13:24:23;2.22;;;0.73;;
8232;SDS011;4157;48.074;9.952;2022-09-12T13:26:52;1.58;;;0.60;;
8232;SDS011;4157;48.074;9.952;2022-09-12T13:29:23;2.28;;;0.50;;
8232;SDS011;4157;48.074;9.952;2022-09-12T13:31:51;1.52;;;0.68;;
8232;SDS011;4157;48.074;9.952;2022-09-12T13:34:20;1.13;;;0.52;;
8232;SDS011;4157;48.074;9.952;2022-09-12T13:39:37;1.20;;;0.57;;
8232;SDS011;4157;48.074;9.952;2022-09-12T13:42:21;0.80;;;0.50;;
8232;SDS011;4157;48.074;9.952;2022-09-12T13:47:20;2.53;;;0.52;;
8232;SDS011;4157;48.074;9.952;2022-09-12T13:49:49;2.72;;;0.60;;
8232;SDS011;4157;48.074;9.952;2022-09-12T13:52:17;1.08;;;0.50;;
8232;SDS011;4157;48.074;9.952;2022-09-12T13:54:47;1.40;;;0.60;;
8232;SDS011;4157;48.074;9.952;2022-09-12T13:57:28;1.80;;;0.60;;
8232;SDS011;4157;48.074;9.952;2022-09-12T13:59:56;1.58;;;0.70;;
8232;SDS011;4157;48.074;9.952;2022-09-12T14:02:24;2.10;;;0.70;;
8232;SDS011;4157;48.074;9.952;2022-09-12T14:04:53;1.95;;;0.50;;
8232;SDS011;4157;48.074;9.952;2022-09-12T14:07:38;2.30;;;0.60;;
8232;SDS011;4157;48.074;9.952;2022-09-12T14:10:07;1.25;;;0.60;;
8232;SDS011;4157;48.074;9.952;2022-09-12T14:12:36;1.00;;;0.50;;
8232;SDS011;4157;48.074;9.952;2022-09-12T14:15:06;0.63;;;0.50;;
8232;SDS011;4157;48.074;9.952;2022-09-12T14:17:37;0.80;;;0.40;;
8232;SDS011;4157;48.074;9.952;2022-09-12T14:20:05;0.77;;;0.47;;
8232;SDS011;4157;48.074;9.952;2022-09-12T14:22:34;0.77;;;0.43;;
8232;SDS011;4157;48.074;9.952;2022-09-12T14:25:03;0.40;;;0.40;;
8232;SDS011;4157;48.074;9.952;2022-09-12T14:27:37;1.75;;;0.55;;
8232;SDS011;4157;48.074;9.952;2022-09-12T14:30:19;2.30;;;0.60;;
8232;SDS011;4157;48.074;9.952;2022-09-12T14:33:00;1.60;;;0.52;;
8232;SDS011;4157;48.074;9.952;2022-09-12T14:35:29;1.65;;;0.60;;
8232;SDS011;4157;48.074;9.952;2022-09-12T14:37:57;0.93;;;0.50;;
8232;SDS011;4157;48.074;9.952;2022-09-12T14:40:31;0.98;;;0.40;;
8232;SDS011;4157;48.074;9.952;2022-09-12T14:43:13;2.42;;;0.52;;
8232;SDS011;4157;48.074;9.952;2022-09-12T14:45:48;1.27;;;0.50;;
8232;SDS011;4157;48.074;9.952;2022-09-12T14:48:17;1.15;;;0.52;;
8232;SDS011;4157;48.074;9.952;2022-09-12T14:50:47;2.50;;;0.60;;
8232;SDS011;4157;48.074;9.952;2022-09-12T14:53:20;1.35;;;0.70;;
8232;SDS011;4157;48.074;9.952;2022-09-12T14:55:49;1.15;;;0.50;;
8232;SDS011;4157;48.074;9.952;2022-09-12T14:58:23;1.30;;;0.50;;
8232;SDS011;4157;48.074;9.952;2022-09-12T15:00:52;3.90;;;0.80;;
8232;SDS011;4157;48.074;9.952;2022-09-12T15:03:24;0.98;;;0.50;;
8232;SDS011;4157;48.074;9.952;2022-09-12T15:05:52;1.83;;;0.50;;
8232;SDS011;4157;48.074;9.952;2022-09-12T15:08:20;4.13;;;0.75;;
8232;SDS011;4157;48.074;9.952;2022-09-12T15:10:47;1.10;;;0.70;;
8232;SDS011;4157;48.074;9.952;2022-09-12T15:13:20;1.42;;;0.55;;
8232;SDS011;4157;48.074;9.952;2022-09-12T15:15:50;3.15;;;0.80;;
8232;SDS011;4157;48.074;9.952;2022-09-12T15:18:18;1.75;;;0.70;;
8232;SDS011;4157;48.074;9.952;2022-09-12T15:20:47;1.52;;;0.60;;
8232;SDS011;4157;48.074;9.952;2022-09-12T15:23:20;0.93;;;0.60;;
8232;SDS011;4157;48.074;9.952;2022-09-12T15:25:49;0.63;;;0.50;;
8232;SDS011;4157;48.074;9.952;2022-09-12T15:28:17;1.95;;;0.68;;
8232;SDS011;4157;48.074;9.952;2022-09-12T15:30:46;1.08;;;0.50;;
8232;SDS011;4157;48.074;9.952;2022-09-12T15:33:16;1.80;;;0.65;;
8232;SDS011;4157;48.074;9.952;2022-09-12T15:35:44;1.58;;;0.60;;
8232;SDS011;4157;48.074;9.952;2022-09-12T15:38:11;0.70;;;0.50;;
8232;SDS011;4157;48.074;9.952;2022-09-12T15:40:39;1.10;;;0.60;;
8232;SDS011;4157;48.074;9.952;2022-09-12T15:43:07;1.73;;;0.60;;
8232;SDS011;4157;48.074;9.952;2022-09-12T15:45:35;2.05;;;0.63;;
8232;SDS011;4157;48.074;9.952;2022-09-12T15:48:03;1.17;;;0.68;;
8232;SDS011;4157;48.074;9.952;2022-09-12T15:50:32;1.95;;;0.47;;